createdAt,value
2022-10-21T00:00:31.639Z,2.40
2022-10-21T00:05:33.432Z,2.10
2022-10-21T00:10:35.187Z,1.90
2022-10-21T00:15:36.917Z,1.95
2022-10-21T00:20:41.305Z,1.60
2022-10-21T00:25:43.189Z,1.95
2022-10-21T00:30:46.010Z,1.92
2022-10-21T00:35:55.586Z,1.80
2022-10-21T00:40:57.930Z,1.63
2022-10-21T00:46:03.490Z,2.28
2022-10-21T00:51:14.459Z,2.40
2022-10-21T00:56:21.523Z,2.10
2022-10-21T01:01:23.543Z,2.00
2022-10-21T01:06:26.387Z,1.80
2022-10-21T01:11:30.255Z,2.58
2022-10-21T01:16:49.535Z,2.38
2022-10-21T01:21:58.089Z,1.77
2022-10-21T01:27:15.109Z,2.17
2022-10-21T01:32:34.975Z,1.70
2022-10-21T01:38:15.900Z,2.20
2022-10-21T01:43:26.841Z,1.52
2022-10-21T01:48:37.565Z,1.58
2022-10-21T01:53:50.569Z,2.60
2022-10-21T01:58:53.603Z,1.90
2022-10-21T02:03:59.363Z,1.40
2022-10-21T02:09:01.294Z,1.27
2022-10-21T02:14:15.048Z,1.52
2022-10-21T02:19:19.647Z,1.85
2022-10-21T02:24:44.832Z,2.15
2022-10-21T02:29:48.828Z,1.55
2022-10-21T02:35:21.786Z,1.70
2022-10-21T02:40:52.515Z,2.05
2022-10-21T02:50:56.731Z,1.55
2022-10-21T02:55:58.481Z,1.50
2022-10-21T03:01:00.978Z,1.42
2022-10-21T03:06:02.914Z,1.73
2022-10-21T03:11:05.637Z,1.55
2022-10-21T03:16:08.097Z,1.52
2022-10-21T03:21:09.999Z,1.52
2022-10-21T03:26:11.758Z,1.15
2022-10-21T03:31:13.635Z,1.50
2022-10-21T03:36:15.443Z,1.40
2022-10-21T03:41:17.343Z,1.65
2022-10-21T03:46:19.276Z,1.20
2022-10-21T03:51:21.073Z,1.60
2022-10-21T03:56:22.808Z,1.42
2022-10-21T04:01:24.764Z,2.13
2022-10-21T04:06:26.682Z,1.10
2022-10-21T04:11:28.577Z,1.30
2022-10-21T04:16:30.429Z,1.58
2022-10-21T04:21:32.144Z,1.65
2022-10-21T04:26:33.892Z,1.45
2022-10-21T04:31:35.976Z,1.30
2022-10-21T04:36:37.730Z,1.35
2022-10-21T04:41:39.588Z,1.30
2022-10-21T04:46:41.319Z,1.58
2022-10-21T04:51:43.245Z,1.77
2022-10-21T04:56:45.099Z,1.98
2022-10-21T05:01:46.872Z,1.73
2022-10-21T05:06:48.662Z,1.45
2022-10-21T05:11:51.153Z,1.75
2022-10-21T05:16:52.963Z,1.50
2022-10-21T05:21:54.763Z,1.65
2022-10-21T05:26:56.516Z,1.77
2022-10-21T05:31:58.436Z,1.63
2022-10-21T05:37:00.186Z,1.83
2022-10-21T05:42:02.103Z,1.75
2022-10-21T05:47:04.572Z,1.65
2022-10-21T05:52:06.357Z,2.38
2022-10-21T05:57:08.107Z,1.98
2022-10-21T06:02:10.925Z,2.22
2022-10-21T06:07:12.795Z,2.15
2022-10-21T06:12:14.494Z,2.45
2022-10-21T06:17:16.336Z,2.08
2022-10-21T06:22:18.347Z,2.17
2022-10-21T06:27:20.270Z,2.65
2022-10-21T06:32:22.036Z,1.98
2022-10-21T06:37:23.777Z,2.65
2022-10-21T06:42:25.657Z,2.30
2022-10-21T06:47:27.374Z,2.10
2022-10-21T06:52:31.609Z,2.03
2022-10-21T06:57:33.798Z,2.42
2022-10-21T07:02:37.073Z,2.22
2022-10-21T07:07:39.275Z,2.22
2022-10-21T07:12:41.233Z,2.90
2022-10-21T07:17:43.012Z,2.70
2022-10-21T07:22:44.886Z,2.53
2022-10-21T07:27:48.915Z,3.03
2022-10-21T07:32:51.095Z,2.67
2022-10-21T07:37:52.902Z,2.45
2022-10-21T07:42:55.672Z,2.38
2022-10-21T07:47:57.635Z,2.50
2022-10-21T07:53:10.979Z,1.92
2022-10-21T07:58:14.020Z,2.45
2022-10-21T08:03:15.836Z,2.30
2022-10-21T08:08:17.667Z,2.55
2022-10-21T08:13:20.089Z,1.95
2022-10-21T08:18:22.379Z,2.40
2022-10-21T08:23:26.374Z,2.40
2022-10-21T08:28:30.774Z,1.80
2022-10-21T08:33:32.701Z,1.80
2022-10-21T08:38:35.208Z,1.75
2022-10-21T08:43:39.528Z,1.40
2022-10-21T08:48:58.370Z,1.13
2022-10-21T08:54:05.805Z,1.40
2022-10-21T08:59:23.218Z,1.55
2022-10-21T09:04:52.377Z,1.20
2022-10-21T09:10:00.166Z,0.95
2022-10-21T09:15:22.492Z,0.95
2022-10-21T09:21:04.654Z,0.82
2022-10-21T09:26:30.609Z,0.70
2022-10-21T09:31:32.582Z,0.77
2022-10-21T09:36:39.201Z,0.90
2022-10-21T09:41:44.648Z,0.80
2022-10-21T09:46:48.749Z,0.75
2022-10-21T09:51:50.924Z,0.80
2022-10-21T09:57:01.812Z,0.90
2022-10-21T10:02:16.229Z,0.70
2022-10-21T10:07:33.084Z,0.50
2022-10-21T10:12:34.861Z,0.73
2022-10-21T10:17:38.627Z,0.60
2022-10-21T10:23:08.757Z,0.60
2022-10-21T10:28:10.450Z,0.95
2022-10-21T10:33:28.520Z,0.90
2022-10-21T10:38:41.017Z,1.10
2022-10-21T10:43:49.432Z,1.30
2022-10-21T10:48:52.658Z,0.90
2022-10-21T10:54:20.334Z,1.00
2022-10-21T10:59:44.057Z,1.20
2022-10-21T11:05:00.640Z,1.48
2022-10-21T11:10:07.723Z,1.10
2022-10-21T11:15:15.136Z,0.93
2022-10-21T11:20:24.656Z,1.23
2022-10-21T11:25:40.424Z,1.00
2022-10-21T11:31:15.440Z,1.17
2022-10-21T11:36:40.632Z,1.17
2022-10-21T11:41:52.679Z,1.38
2022-10-21T11:47:31.802Z,1.02
2022-10-21T11:52:58.489Z,1.20
2022-10-21T11:58:38.555Z,0.93
2022-10-21T12:04:06.444Z,0.90
2022-10-21T12:09:21.561Z,0.80
2022-10-21T12:14:31.645Z,0.77
2022-10-21T12:19:35.296Z,0.85
2022-10-21T12:24:52.693Z,0.90
2022-10-21T12:30:23.406Z,1.13
2022-10-21T12:40:50.981Z,0.75
2022-10-21T12:46:08.731Z,0.65
2022-10-21T12:51:22.679Z,0.80
2022-10-21T12:56:27.182Z,0.73
2022-10-21T13:01:37.476Z,0.60
2022-10-21T13:07:00.274Z,1.00
2022-10-21T13:12:07.958Z,0.77
2022-10-21T13:17:33.531Z,0.70
2022-10-21T13:22:40.561Z,0.80
2022-10-21T13:27:55.164Z,0.85
2022-10-21T13:33:20.115Z,1.23
2022-10-21T13:38:33.658Z,0.73
2022-10-21T13:43:54.198Z,0.85
2022-10-21T13:48:59.645Z,1.23
2022-10-21T13:54:10.046Z,0.80
2022-10-21T13:59:29.994Z,0.60
2022-10-21T14:04:33.477Z,0.52
2022-10-21T14:09:40.676Z,0.70
2022-10-21T14:14:42.557Z,0.70
2022-10-21T14:19:49.022Z,0.70
2022-10-21T14:24:56.608Z,0.47
2022-10-21T14:30:01.516Z,0.60
2022-10-21T14:35:23.928Z,0.50
2022-10-21T14:40:34.262Z,0.80
2022-10-21T14:45:45.205Z,0.70
2022-10-21T14:50:59.930Z,0.70
2022-10-21T14:56:05.682Z,0.63
2022-10-21T15:01:13.735Z,0.60
2022-10-21T15:06:28.344Z,0.73
2022-10-21T15:11:33.964Z,0.52
2022-10-21T15:21:53.478Z,1.10
2022-10-21T15:26:59.631Z,0.50
2022-10-21T15:32:02.133Z,0.60
2022-10-21T15:37:04.046Z,0.43
2022-10-21T15:42:06.132Z,0.60
2022-10-21T15:47:11.731Z,0.73
2022-10-21T15:52:14.507Z,0.47
2022-10-21T15:57:21.818Z,0.60
2022-10-21T16:02:23.522Z,0.90
2022-10-21T16:07:37.101Z,0.70
2022-10-21T16:12:39.051Z,1.00
2022-10-21T16:17:46.022Z,0.60
2022-10-21T16:22:47.873Z,0.80
2022-10-21T16:27:55.956Z,0.50
2022-10-21T16:32:58.306Z,0.50
2022-10-21T16:38:00.167Z,0.70
2022-10-21T16:43:01.916Z,0.65
2022-10-21T16:48:04.742Z,0.70
2022-10-21T16:53:08.461Z,0.70
2022-10-21T16:58:10.196Z,0.98
2022-10-21T17:03:12.398Z,0.90
2022-10-21T17:08:14.377Z,0.57
2022-10-21T17:13:16.297Z,0.75
2022-10-21T17:18:18.350Z,1.02
2022-10-21T17:23:20.863Z,0.85
2022-10-21T17:28:22.667Z,0.90
2022-10-21T17:33:24.925Z,1.10
2022-10-21T17:38:26.788Z,0.90
2022-10-21T17:43:29.839Z,0.80
2022-10-21T17:48:32.600Z,1.55
2022-10-21T17:53:34.373Z,1.38
2022-10-21T17:58:36.162Z,1.38
2022-10-21T18:03:38.759Z,0.98
2022-10-21T18:08:40.911Z,0.77
2022-10-21T18:13:43.297Z,1.02
2022-10-21T18:18:45.585Z,1.27
2022-10-21T18:23:49.741Z,1.10
2022-10-21T18:28:57.178Z,1.00
2022-10-21T18:34:00.851Z,1.80
2022-10-21T18:39:03.143Z,1.10
2022-10-21T18:44:10.676Z,0.93
2022-10-21T18:49:14.664Z,1.50
2022-10-21T18:54:16.420Z,1.45
2022-10-21T18:59:18.277Z,1.45
2022-10-21T19:04:20.446Z,1.75
2022-10-21T19:09:25.792Z,1.38
2022-10-21T19:14:28.565Z,1.40
2022-10-21T19:19:30.433Z,1.20
2022-10-21T19:24:32.209Z,1.48
2022-10-21T19:29:33.962Z,1.52
2022-10-21T19:34:35.765Z,1.40
2022-10-21T19:39:37.544Z,1.60
2022-10-21T19:44:39.468Z,1.40
2022-10-21T19:49:41.569Z,1.70
2022-10-21T19:54:43.494Z,1.60
2022-10-21T19:59:45.340Z,1.98
2022-10-21T20:04:47.235Z,1.42
2022-10-21T20:09:49.140Z,1.50
2022-10-21T20:14:50.856Z,1.35
2022-10-21T20:19:52.667Z,1.48
2022-10-21T20:24:54.439Z,1.77
2022-10-21T20:29:57.315Z,1.60
2022-10-21T20:34:59.187Z,1.63
2022-10-21T20:40:00.907Z,1.70
2022-10-21T20:45:03.954Z,1.75
2022-10-21T20:50:06.100Z,1.77
2022-10-21T20:55:08.204Z,2.20
2022-10-21T21:00:11.719Z,1.15
2022-10-21T21:05:15.911Z,1.95
2022-10-21T21:10:17.793Z,2.22
2022-10-21T21:15:19.741Z,2.15
2022-10-21T21:20:21.646Z,1.63
2022-10-21T21:25:23.417Z,2.47
2022-10-21T21:30:25.178Z,1.70
2022-10-21T21:35:26.927Z,2.40
2022-10-21T21:40:29.864Z,2.15
2022-10-21T21:45:31.579Z,2.13
2022-10-21T21:50:33.292Z,2.00
2022-10-21T21:55:35.235Z,1.95
2022-10-21T22:00:37.275Z,1.95
2022-10-21T22:05:39.075Z,2.35
2022-10-21T22:10:41.072Z,1.63
2022-10-21T22:15:48.066Z,1.98
2022-10-21T22:20:50.261Z,2.15
2022-10-21T22:25:52.243Z,1.92
2022-10-21T22:31:03.939Z,2.45
2022-10-21T22:36:06.850Z,2.17
2022-10-21T22:41:12.528Z,2.10
2022-10-21T22:46:33.377Z,2.63
2022-10-21T22:51:36.046Z,2.22
2022-10-21T22:56:37.850Z,1.95
2022-10-21T23:01:39.551Z,2.42
2022-10-21T23:06:41.279Z,1.80
2022-10-21T23:11:43.116Z,2.28
2022-10-21T23:16:45.000Z,2.50
2022-10-21T23:21:46.740Z,2.20
2022-10-21T23:26:48.612Z,2.20
2022-10-21T23:31:50.354Z,2.50
2022-10-21T23:36:52.474Z,2.10
2022-10-21T23:41:54.189Z,2.10
2022-10-21T23:46:57.085Z,1.95
2022-10-21T23:51:59.082Z,2.17
2022-10-21T23:57:00.961Z,2.00
